Time;durP1;ratioP1;P1;durP2;ratioP2;P2;SDS_P1;SDS_P2;PMS_P1;PMS_P2;Temp;Humidity;BMP_temperature;BMP_pressure;BME280_temperature;BME280_humidity;BME280_pressure;Samples;Min_cycle;Max_cycle;Signal;HPM_P1;HPM_P2
2022/02/17 00:00:45;;;;;;;10.50;9.48;;;;;;;12.86;68.96;98886.16;5095069;28;20024;-49
2022/02/17 00:03:11;;;;;;;9.77;8.80;;;;;;;12.59;68.20;98888.06;5093729;28;20024;-50
2022/02/17 00:05:38;;;;;;;14.82;9.70;;;;;;;12.32;68.62;98893.41;5095019;28;20031;-49
2022/02/17 00:08:04;;;;;;;12.45;9.18;;;;;;;12.22;68.31;98889.59;5095032;28;20386;-49
2022/02/17 00:10:31;;;;;;;10.00;8.30;;;;;;;12.21;68.93;98893.25;5094884;28;20016;-50
2022/02/17 00:12:59;;;;;;;9.98;8.85;;;;;;;12.28;68.11;98894.03;5094875;28;20440;-49
2022/02/17 00:15:29;;;;;;;10.75;8.60;;;;;;;12.16;68.43;98899.13;5094782;28;20625;-50
2022/02/17 00:17:56;;;;;;;9.52;8.52;;;;;;;12.20;68.21;98900.34;5095034;28;20497;-50
2022/02/17 00:20:22;;;;;;;11.00;8.82;;;;;;;12.19;68.42;98904.78;5094620;28;20371;-49
2022/02/17 00:22:48;;;;;;;10.55;7.53;;;;;;;12.29;68.05;98903.53;5094680;28;20024;-49
2022/02/17 00:25:14;;;;;;;8.75;7.57;;;;;;;12.22;67.26;98890.41;5093255;28;20073;-50
2022/02/17 00:27:40;;;;;;;11.85;9.10;;;;;;;12.10;67.17;98882.34;5093199;28;20042;-50
2022/02/17 00:30:07;;;;;;;9.93;8.93;;;;;;;11.99;67.23;98877.69;5093216;28;20059;-48
2022/02/17 00:32:35;;;;;;;13.15;10.18;;;;;;;11.91;66.54;98864.75;5094251;28;20036;-49
2022/02/17 00:35:02;;;;;;;13.15;10.63;;;;;;;11.75;66.84;98872.03;5094418;28;20031;-48
2022/02/17 00:37:28;;;;;;;10.80;9.68;;;;;;;11.67;67.56;98879.28;5094069;28;20080;-48
2022/02/17 00:39:53;;;;;;;15.35;11.52;;;;;;;11.63;67.44;98878.91;5093311;28;20039;-49
2022/02/17 00:42:19;;;;;;;11.40;9.48;;;;;;;11.72;67.89;98893.47;5094248;28;20024;-49
2022/02/17 00:44:47;;;;;;;14.38;11.20;;;;;;;11.89;67.97;98877.28;5094281;28;20028;-48
2022/02/17 00:47:14;;;;;;;15.02;10.52;;;;;;;12.00;67.70;98887.22;5094241;28;20044;-50
2022/02/17 00:49:40;;;;;;;16.70;9.93;;;;;;;12.18;67.63;98908.41;5094144;28;20028;-49
2022/02/17 00:52:06;;;;;;;16.60;9.38;;;;;;;12.38;67.27;98904.94;5094085;28;20017;-49
2022/02/17 00:54:33;;;;;;;13.68;9.35;;;;;;;12.55;66.44;98906.09;5092736;28;20490;-48
2022/02/17 00:56:58;;;;;;;13.20;9.32;;;;;;;12.69;66.01;98903.44;5092713;28;20051;-49
2022/02/17 00:59:26;;;;;;;11.93;8.82;;;;;;;12.74;66.06;98908.88;5093901;28;20475;-49
2022/02/17 01:01:52;;;;;;;13.82;8.90;;;;;;;12.63;65.52;98905.06;5093900;28;20498;-49
2022/02/17 01:04:18;;;;;;;12.45;8.95;;;;;;;12.53;65.71;98899.44;5093885;28;20024;-49
2022/02/17 01:06:44;;;;;;;9.60;8.30;;;;;;;12.57;65.98;98922.50;5093830;28;20027;-49
2022/02/17 01:09:11;;;;;;;8.60;7.47;;;;;;;12.63;65.57;98927.97;5092456;28;20122;-49
2022/02/17 01:11:38;;;;;;;11.48;8.35;;;;;;;12.72;65.23;98939.91;5092410;28;20227;-49
2022/02/17 01:14:05;;;;;;;12.80;7.90;;;;;;;12.83;65.76;98938.44;5093697;28;20027;-49
2022/02/17 01:16:31;;;;;;;13.65;10.32;;;;;;;12.78;66.30;98931.16;5093623;28;20023;-48
2022/02/17 01:18:57;;;;;;;14.10;10.48;;;;;;;12.76;67.78;98947.16;5093515;28;20115;-48
2022/02/17 01:21:23;;;;;;;12.88;11.65;;;;;;;12.57;68.79;98938.28;5093533;28;20149;-49
2022/02/17 01:23:49;;;;;;;10.70;9.68;;;;;;;12.35;69.17;98923.78;5093529;28;20513;-48
2022/02/17 01:26:15;;;;;;;11.13;10.00;;;;;;;12.18;69.70;98941.81;5093404;28;20028;-48
2022/02/17 01:28:41;;;;;;;12.73;10.05;;;;;;;12.16;70.69;98957.81;5093469;28;20502;-49
2022/02/17 01:31:06;;;;;;;12.48;10.10;;;;;;;12.18;71.17;98968.94;5092001;28;20020;-49
2022/02/17 01:33:34;;;;;;;9.93;8.50;;;;;;;12.25;70.50;98987.34;5092668;28;20101;-49
2022/02/17 01:36:06;;;;;;;10.57;8.60;;;;;;;12.26;70.01;99003.97;5092982;28;20411;-48
2022/02/17 01:38:34;;;;;;;15.23;9.38;;;;;;;12.37;68.94;99001.53;5093211;28;20027;-48
2022/02/17 01:41:00;;;;;;;14.27;10.43;;;;;;;12.47;69.83;98985.28;5093140;28;20024;-49
2022/02/17 01:43:26;;;;;;;12.52;10.25;;;;;;;12.40;71.00;98981.88;5093180;28;20100;-49
2022/02/17 01:45:51;;;;;;;12.60;11.30;;;;;;;12.08;71.74;98979.06;5091759;28;20020;-48
2022/02/17 01:48:17;;;;;;;15.57;10.32;;;;;;;11.59;70.85;98962.63;5092973;28;20023;-49
2022/02/17 01:50:43;;;;;;;11.85;10.07;;;;;;;11.07;71.81;98947.53;5091639;28;20123;-49
2022/02/17 01:53:10;;;;;;;10.40;9.32;;;;;;;10.67;73.60;98942.13;5091594;28;20042;-48
2022/02/17 01:55:37;;;;;;;13.68;9.52;;;;;;;10.49;74.27;98938.16;5092863;28;20019;-49
2022/02/17 01:58:03;;;;;;;9.52;8.30;;;;;;;10.39;74.86;98929.84;5091497;28;20024;-49
2022/02/17 02:00:29;;;;;;;10.25;9.25;;;;;;;10.43;75.91;98923.19;5092822;28;20442;-50
2022/02/17 02:02:55;;;;;;;11.57;8.80;;;;;;;10.63;75.26;98933.81;5092767;28;20506;-49
2022/02/17 02:05:21;;;;;;;12.13;9.02;;;;;;;10.74;74.90;98929.81;5092720;28;20052;-49
2022/02/17 02:07:47;;;;;;;10.10;8.73;;;;;;;10.88;75.58;98920.19;5092706;28;20024;-50
2022/02/17 02:10:12;;;;;;;9.27;7.57;;;;;;;11.10;75.40;98915.59;5092506;28;20112;-49
2022/02/17 02:12:38;;;;;;;7.78;7.07;;;;;;;11.35;74.58;98903.53;5092620;28;20066;-48
2022/02/17 02:15:04;;;;;;;11.55;7.85;;;;;;;11.56;73.64;98909.63;5091193;28;20020;-49
2022/02/17 02:17:33;;;;;;;9.23;6.90;;;;;;;11.75;73.38;98897.50;5091046;28;20024;-49
2022/02/17 02:20:02;;;;;;;9.95;7.82;;;;;;;11.87;71.58;98888.00;5092425;28;20020;-49
2022/02/17 02:22:29;;;;;;;11.43;8.40;;;;;;;11.72;71.87;98884.75;5091032;28;20024;-50
2022/02/17 02:24:58;;;;;;;12.85;9.05;;;;;;;11.67;71.52;98885.38;5092400;28;20056;-48
2022/02/17 02:27:25;;;;;;;12.02;8.82;;;;;;;11.66;71.57;98880.31;5092319;28;20043;-49
2022/02/17 02:29:50;;;;;;;11.27;9.32;;;;;;;11.59;71.46;98873.25;5092322;28;20047;-49
2022/02/17 02:32:16;;;;;;;10.10;9.20;;;;;;;11.39;71.89;98872.44;5092169;28;20478;-50
2022/02/17 02:34:42;;;;;;;11.25;9.18;;;;;;;11.27;72.53;98868.75;5092262;28;20023;-50
2022/02/17 02:37:08;;;;;;;11.00;9.18;;;;;;;11.40;72.48;98871.41;5090587;28;20535;-49
2022/02/17 02:39:35;;;;;;;11.48;9.20;;;;;;;11.57;71.88;98850.81;5092023;28;20153;-48
2022/02/17 02:42:01;;;;;;;10.00;8.98;;;;;;;11.75;71.18;98837.84;5090734;28;20085;-48
2022/02/17 02:44:27;;;;;;;9.48;8.35;;;;;;;11.87;70.99;98821.44;5091189;28;20012;-50
2022/02/17 02:46:53;;;;;;;11.85;8.80;;;;;;;11.86;70.40;98820.63;5090731;28;20024;-50
2022/02/17 02:49:19;;;;;;;8.70;7.85;;;;;;;11.77;70.53;98824.47;5090685;28;20110;-50
2022/02/17 02:51:45;;;;;;;9.35;6.55;;;;;;;11.84;70.82;98840.25;5091971;28;20068;-49
2022/02/17 02:54:11;;;;;;;7.45;6.55;;;;;;;12.02;70.85;98852.81;5090653;28;20481;-49
2022/02/17 02:56:36;;;;;;;9.73;8.38;;;;;;;12.08;70.45;98847.53;5091920;28;20027;-49
2022/02/17 02:59:03;;;;;;;10.52;8.50;;;;;;;12.12;71.18;98846.09;5090539;28;20111;-50
2022/02/17 03:01:28;;;;;;;11.65;8.10;;;;;;;12.24;71.21;98850.75;5091871;28;20028;-48
2022/02/17 03:03:54;;;;;;;9.68;7.38;;;;;;;12.37;71.18;98861.22;5091874;28;20044;-50
2022/02/17 03:06:20;;;;;;;10.75;8.48;;;;;;;12.36;71.22;98849.06;5090508;28;20024;-48
2022/02/17 03:08:46;;;;;;;7.72;6.93;;;;;;;12.47;70.86;98837.88;5090507;28;20101;-49
2022/02/17 03:11:11;;;;;;;8.82;6.28;;;;;;;12.40;70.28;98818.69;5091806;28;20016;-49
2022/02/17 03:13:37;;;;;;;7.05;6.38;;;;;;;12.23;69.79;98817.53;5090495;28;20093;-48
2022/02/17 03:16:03;;;;;;;7.38;6.50;;;;;;;12.06;70.08;98822.44;5091745;28;20031;-49
2022/02/17 03:18:29;;;;;;;8.23;5.78;;;;;;;11.94;71.11;98817.00;5091700;28;20024;-48
2022/02/17 03:20:54;;;;;;;7.55;5.85;;;;;;;12.10;72.03;98821.03;5090435;28;20028;-49
2022/02/17 03:23:21;;;;;;;7.25;6.55;;;;;;;12.41;71.78;98819.50;5091664;28;20020;-50
2022/02/17 03:25:47;;;;;;;9.27;6.40;;;;;;;12.63;70.76;98820.81;5090353;28;20028;-48
2022/02/17 03:28:13;;;;;;;13.00;6.90;;;;;;;12.68;70.48;98826.25;5091699;28;20374;-49
2022/02/17 03:30:39;;;;;;;9.13;6.95;;;;;;;12.75;70.72;98824.38;5091625;28;20035;-49
2022/02/17 03:33:05;;;;;;;8.38;5.57;;;;;;;12.86;70.43;98820.28;5091629;28;20080;-48
2022/02/17 03:35:31;;;;;;;10.77;6.80;;;;;;;12.91;69.64;98825.72;5090283;28;20457;-48
2022/02/17 03:37:57;;;;;;;8.85;6.53;;;;;;;12.96;69.39;98823.28;5091338;28;20040;-48
2022/02/17 03:40:24;;;;;;;7.20;5.82;;;;;;;12.85;69.03;98813.41;5090180;28;20043;-48
2022/02/17 03:42:50;;;;;;;7.82;7.03;;;;;;;12.54;68.64;98819.44;5091502;28;20107;-49
2022/02/17 03:45:16;;;;;;;8.52;7.63;;;;;;;12.25;69.40;98821.56;5090144;28;20028;-48
2022/02/17 03:47:42;;;;;;;9.38;7.22;;;;;;;12.13;70.22;98826.69;5091461;28;20093;-49
2022/02/17 03:50:10;;;;;;;8.20;6.78;;;;;;;12.06;70.28;98823.25;5091443;28;20024;-48
2022/02/17 03:52:37;;;;;;;8.05;6.47;;;;;;;12.11;70.47;98826.09;5091455;28;20032;-48
2022/02/17 03:55:04;;;;;;;10.43;7.32;;;;;;;12.16;69.47;98842.03;5091629;28;20020;-49
2022/02/17 03:57:30;;;;;;;9.93;7.50;;;;;;;12.14;69.31;98843.28;5095128;28;20055;-48
2022/02/17 03:59:56;;;;;;;9.90;7.10;;;;;;;12.11;69.64;98849.75;5093836;28;20028;-48
2022/02/17 04:02:21;;;;;;;7.72;7.03;;;;;;;12.18;68.97;98868.94;5095086;28;20101;-48
2022/02/17 04:04:47;;;;;;;8.95;8.05;;;;;;;12.07;69.29;98881.94;5095061;28;20412;-48
2022/02/17 04:07:16;;;;;;;10.35;7.93;;;;;;;12.10;70.92;98879.69;5093705;28;20024;-48
2022/02/17 04:09:42;;;;;;;12.50;10.68;;;;;;;12.02;71.51;98887.81;5095007;28;20028;-48
2022/02/17 04:12:08;;;;;;;17.58;9.73;;;;;;;11.95;72.50;98894.88;5093823;28;20039;-48
2022/02/17 04:14:34;;;;;;;15.93;10.88;;;;;;;11.72;72.48;98890.81;5093564;28;20028;-48
2022/02/17 04:17:00;;;;;;;22.85;12.10;;;;;;;11.48;73.72;98878.28;5094813;28;20024;-49
2022/02/17 04:19:26;;;;;;;14.65;11.05;;;;;;;11.24;73.92;98875.22;5094731;28;20023;-48
2022/02/17 04:21:53;;;;;;;12.75;11.35;;;;;;;11.08;74.56;98870.34;5093368;28;20027;-50
2022/02/17 04:24:19;;;;;;;17.15;12.35;;;;;;;11.10;75.63;98865.69;5093275;28;20039;-49
2022/02/17 04:26:45;;;;;;;13.05;11.65;;;;;;;11.22;75.82;98858.84;5093300;28;20035;-49
2022/02/17 04:29:11;;;;;;;18.38;12.77;;;;;;;11.18;75.02;98870.78;5094567;28;20051;-49
2022/02/17 04:31:37;;;;;;;11.27;9.55;;;;;;;11.12;74.95;98861.06;5093217;28;20039;-49
2022/02/17 04:34:03;;;;;;;13.90;9.15;;;;;;;11.15;75.14;98873.81;5093178;28;20401;-50
2022/02/17 04:36:29;;;;;;;11.65;9.68;;;;;;;11.13;74.69;98876.63;5092880;28;20123;-49
2022/02/17 04:38:55;;;;;;;30.35;13.38;;;;;;;11.17;75.52;98877.03;5094292;28;20048;-48
2022/02/17 04:44:05;;;;;;;21.27;12.10;;;;;;;11.32;76.36;98885.53;5094326;28;20047;-48
2022/02/17 04:46:31;;;;;;;27.08;24.40;;;;;;;11.23;75.51;98886.75;5092961;28;20020;-49
2022/02/17 04:48:57;;;;;;;26.52;22.63;;;;;;;10.98;75.44;98878.59;5092886;28;20071;-48
2022/02/17 04:51:23;;;;;;;13.30;11.07;;;;;;;10.74;75.88;98880.75;5092830;28;20476;-48
2022/02/17 04:53:49;;;;;;;16.92;14.30;;;;;;;10.63;76.20;98883.13;5094143;28;20024;-49
2022/02/17 04:56:14;;;;;;;19.83;15.77;;;;;;;10.52;75.91;98879.25;5094061;28;20017;-48
2022/02/17 04:58:41;;;;;;;11.45;10.00;;;;;;;10.53;76.40;98873.00;5093967;28;20027;-49
2022/02/17 05:01:07;;;;;;;29.65;24.35;;;;;;;10.60;77.45;98873.81;5093966;28;20028;-51
2022/02/17 05:03:32;;;;;;;71.85;57.45;;;;;;;10.70;77.19;98882.13;5093877;28;20035;-48
2022/02/17 05:05:59;;;;;;;67.97;51.08;;;;;;;10.63;77.88;98883.94;5093822;28;20516;-48
2022/02/17 05:08:24;;;;;;;25.00;18.23;;;;;;;10.52;78.40;98885.31;5091635;28;20449;-48
2022/02/17 05:10:50;;;;;;;110.88;71.70;;;;;;;10.53;78.83;98884.28;5093782;28;20016;-48
2022/02/17 05:13:16;;;;;;;18.05;13.45;;;;;;;10.68;79.17;98893.84;5093800;28;20114;-48
2022/02/17 05:15:44;;;;;;;36.22;16.65;;;;;;;10.80;79.24;98902.78;5093677;28;20012;-49
2022/02/17 05:18:10;;;;;;;20.65;16.50;;;;;;;10.79;79.28;98914.28;5093598;28;20027;-48
2022/02/17 05:20:36;;;;;;;49.88;31.08;;;;;;;10.76;79.13;98920.72;5093572;28;20095;-50
2022/02/17 05:23:02;;;;;;;115.40;22.40;;;;;;;10.81;79.81;98932.50;5093548;28;20786;-49
2022/02/17 05:25:28;;;;;;;23.20;16.58;;;;;;;11.00;80.51;98937.00;5093509;28;20023;-49
2022/02/17 05:27:54;;;;;;;42.50;14.88;;;;;;;11.10;80.05;98934.78;5093432;28;20031;-49
2022/02/17 05:30:20;;;;;;;28.33;16.70;;;;;;;11.12;80.40;98935.41;5093412;28;20069;-49
2022/02/17 05:32:46;;;;;;;86.13;17.33;;;;;;;11.20;80.68;98940.47;5093356;28;20043;-50
2022/02/17 05:35:12;;;;;;;36.40;22.45;;;;;;;11.17;80.51;98929.59;5093267;28;20020;-50
2022/02/17 05:37:39;;;;;;;26.92;21.38;;;;;;;11.14;80.54;98938.66;5092956;28;20036;-48
2022/02/17 05:40:07;;;;;;;27.08;19.63;;;;;;;11.04;80.27;98940.03;5093250;28;20603;-48
2022/02/17 05:42:33;;;;;;;22.90;16.40;;;;;;;10.92;80.33;98942.41;5093217;28;20019;-49
2022/02/17 05:44:59;;;;;;;43.30;30.15;;;;;;;10.82;80.37;98945.41;5093088;28;20516;-48
2022/02/17 05:47:24;;;;;;;24.75;17.88;;;;;;;10.81;80.71;98949.03;5093136;28;20016;-50
2022/02/17 05:49:50;;;;;;;31.25;24.70;;;;;;;10.86;80.62;98938.75;5093017;28;20081;-48
2022/02/17 05:52:16;;;;;;;55.08;39.30;;;;;;;10.71;80.63;98948.59;5092958;28;20097;-50
2022/02/17 05:54:42;;;;;;;23.83;17.05;;;;;;;10.71;80.71;98945.97;5092961;28;20104;-49
2022/02/17 05:57:08;;;;;;;18.17;14.07;;;;;;;10.85;81.04;98950.28;5091589;28;20054;-49
2022/02/17 05:59:34;;;;;;;14.07;12.65;;;;;;;10.82;80.80;98945.41;5092768;28;20024;-50
2022/02/17 06:02:00;;;;;;;17.25;12.68;;;;;;;10.79;80.96;98948.44;5092758;28;20107;-49
2022/02/17 06:04:26;;;;;;;28.45;22.50;;;;;;;10.79;80.87;98951.06;5091438;28;20123;-50
2022/02/17 06:06:52;;;;;;;20.40;14.85;;;;;;;10.84;81.00;98945.22;5091349;28;20498;-48
2022/02/17 06:09:18;;;;;;;23.02;15.27;;;;;;;10.85;80.74;98934.50;5092674;28;20123;-48
2022/02/17 06:11:43;;;;;;;18.10;12.40;;;;;;;10.86;80.74;98946.63;5092584;28;20055;-48
2022/02/17 06:14:09;;;;;;;25.75;17.52;;;;;;;10.89;80.74;98946.25;5092539;28;20036;-49
2022/02/17 06:16:35;;;;;;;21.95;13.18;;;;;;;11.03;80.79;98948.91;5091203;28;20141;-48
2022/02/17 06:19:00;;;;;;;15.30;9.43;;;;;;;11.18;80.58;98952.19;5092285;28;20020;-49
2022/02/17 06:21:26;;;;;;;19.48;12.57;;;;;;;11.30;80.53;98963.75;5092440;28;20016;-49
2022/02/17 06:23:52;;;;;;;11.68;10.48;;;;;;;11.44;80.41;98964.59;5092360;28;20061;-50
2022/02/17 06:26:18;;;;;;;18.88;11.30;;;;;;;11.50;79.61;98963.81;5092348;28;20413;-50
2022/02/17 06:28:44;;;;;;;15.75;10.38;;;;;;;11.54;79.32;98969.47;5092282;28;20084;-49
2022/02/17 06:31:11;;;;;;;16.80;10.85;;;;;;;11.51;79.30;98969.84;5092293;28;20554;-49
2022/02/17 06:33:37;;;;;;;14.98;12.98;;;;;;;11.59;79.05;98980.22;5092298;28;20401;-50
2022/02/17 06:36:03;;;;;;;14.70;11.88;;;;;;;11.63;78.83;98973.56;5091869;28;20020;-50
2022/02/17 06:38:30;;;;;;;12.95;11.10;;;;;;;11.62;78.07;98974.53;5090879;28;20028;-50
2022/02/17 06:40:56;;;;;;;16.45;13.23;;;;;;;11.57;78.00;98969.09;5092171;28;20055;-49
2022/02/17 06:43:23;;;;;;;13.68;10.30;;;;;;;11.60;78.21;98968.69;5092073;28;20486;-50
2022/02/17 06:45:49;;;;;;;17.15;12.18;;;;;;;11.66;78.02;98967.88;5092065;28;20555;-50
2022/02/17 06:48:15;;;;;;;25.67;14.90;;;;;;;11.65;77.43;98963.66;5090814;28;20024;-50
2022/02/17 06:50:41;;;;;;;19.92;11.90;;;;;;;11.55;76.71;98969.28;5092080;28;20028;-49
2022/02/17 06:53:07;;;;;;;17.88;12.27;;;;;;;11.57;76.96;98971.72;5091992;28;20024;-50
2022/02/17 06:55:34;;;;;;;12.00;9.75;;;;;;;11.65;76.58;98968.06;5092025;28;20020;-49
2022/02/17 06:58:00;;;;;;;46.13;15.60;;;;;;;11.68;76.63;98963.22;5091875;28;20020;-48
2022/02/17 07:00:25;;;;;;;21.88;11.32;;;;;;;11.76;76.72;98963.03;5090592;28;20035;-49
2022/02/17 07:02:53;;;;;;;17.50;11.35;;;;;;;11.75;76.38;98966.69;5091877;28;20031;-49
2022/02/17 07:05:21;;;;;;;27.90;11.93;;;;;;;11.75;76.68;98964.06;5091890;28;20472;-48
2022/02/17 07:07:47;;;;;;;18.23;11.00;;;;;;;11.83;76.88;98967.47;5090461;28;20428;-49
2022/02/17 07:10:13;;;;;;;13.40;7.97;;;;;;;11.97;76.39;98979.66;5090483;28;20086;-49
2022/02/17 07:12:43;;;;;;;21.02;10.45;;;;;;;12.10;76.25;98984.94;5091826;28;20024;-48
2022/02/17 07:15:10;;;;;;;17.85;10.55;;;;;;;12.21;76.10;98980.06;5091816;28;20519;-50
2022/02/17 07:17:36;;;;;;;20.75;10.45;;;;;;;12.26;75.66;98981.09;5091698;28;20032;-50
2022/02/17 07:20:03;;;;;;;18.92;10.88;;;;;;;12.27;75.01;98990.59;5090428;28;20028;-49
2022/02/17 07:22:29;;;;;;;15.77;10.35;;;;;;;12.28;75.19;98994.03;5090430;28;20027;-49
2022/02/17 07:24:56;;;;;;;12.75;9.32;;;;;;;12.37;75.16;98995.44;5091650;28;20016;-49
2022/02/17 07:27:22;;;;;;;10.57;9.48;;;;;;;12.39;74.61;99009.19;5091661;28;20021;-48
2022/02/17 07:29:48;;;;;;;24.98;11.25;;;;;;;12.41;74.47;99011.63;5091627;28;20021;-48
2022/02/17 07:32:15;;;;;;;9.85;8.95;;;;;;;12.39;74.55;99017.09;5093965;28;20017;-49
2022/02/17 07:34:41;;;;;;;13.73;9.00;;;;;;;12.45;74.75;99026.00;5095690;28;20070;-49
2022/02/17 07:37:07;;;;;;;10.20;8.13;;;;;;;12.55;74.90;99018.50;5095395;28;20071;-49
2022/02/17 07:39:33;;;;;;;10.02;9.00;;;;;;;12.54;74.22;99024.78;5077308;28;20031;-50
2022/02/17 07:42:00;;;;;;;17.17;9.02;;;;;;;12.63;74.38;99020.91;5095470;28;20051;-49
2022/02/17 07:44:26;;;;;;;13.48;8.90;;;;;;;12.64;73.46;99022.56;5094107;28;20032;-49
2022/02/17 07:46:53;;;;;;;15.45;8.57;;;;;;;12.75;73.79;99026.38;5095360;28;20020;-49
2022/02/17 07:49:19;;;;;;;13.75;8.50;;;;;;;12.81;73.72;99030.00;5094065;28;20016;-49
2022/02/17 07:51:45;;;;;;;11.55;9.32;;;;;;;12.89;73.56;99038.50;5095282;28;20410;-49
2022/02/17 07:54:11;;;;;;;13.38;9.15;;;;;;;12.96;73.55;99031.38;5095606;28;20031;-50
2022/02/17 07:56:37;;;;;;;12.05;10.80;;;;;;;13.04;73.65;99037.44;5095183;28;20024;-50
2022/02/17 07:59:02;;;;;;;12.57;9.10;;;;;;;13.06;73.11;99041.50;5093805;28;20023;-47
2022/02/17 08:01:28;;;;;;;13.80;9.25;;;;;;;13.06;73.01;99044.13;5093777;28;20069;-48
2022/02/17 08:03:54;;;;;;;17.80;8.48;;;;;;;13.09;73.17;99040.28;5095098;28;20450;-50
2022/02/17 08:06:20;;;;;;;9.25;8.25;;;;;;;13.29;72.80;99041.03;5095071;28;20020;-49
2022/02/17 08:08:48;;;;;;;13.30;10.73;;;;;;;13.31;72.20;99039.00;5094964;28;20034;-48
2022/02/17 08:11:15;;;;;;;14.10;10.07;;;;;;;13.19;71.56;99043.28;5094842;28;20035;-49
2022/02/17 08:13:41;;;;;;;14.02;8.65;;;;;;;13.13;72.60;99055.44;5093565;28;20027;-49
2022/02/17 08:16:07;;;;;;;41.97;22.20;;;;;;;13.26;72.74;99053.78;5094891;28;20024;-48
2022/02/17 08:18:33;;;;;;;21.52;11.10;;;;;;;13.47;72.07;99063.28;5094689;28;20023;-49
2022/02/17 08:20:58;;;;;;;15.20;10.23;;;;;;;13.51;71.92;99067.91;5094735;28;20024;-49
2022/02/17 08:23:24;;;;;;;29.70;19.80;;;;;;;13.59;71.14;99061.59;5094722;28;20024;-48
2022/02/17 08:25:51;;;;;;;16.45;9.70;;;;;;;13.58;71.48;99059.97;5093306;28;20036;-48
2022/02/17 08:28:16;;;;;;;13.73;9.73;;;;;;;13.66;71.16;99067.66;5094661;28;20024;-50
2022/02/17 08:30:42;;;;;;;14.82;11.05;;;;;;;13.56;71.52;99077.81;5093241;28;20035;-50
2022/02/17 08:33:08;;;;;;;13.40;9.30;;;;;;;13.70;71.48;99078.56;5094485;28;20031;-48
2022/02/17 08:35:34;;;;;;;9.77;8.10;;;;;;;14.16;69.33;99078.28;5094453;28;20474;-48
2022/02/17 08:38:00;;;;;;;12.32;8.65;;;;;;;15.30;67.60;99091.31;5094218;28;20505;-49
2022/02/17 08:40:29;;;;;;;16.00;10.15;;;;;;;15.80;65.79;99078.97;5094423;28;20057;-50
2022/02/17 08:43:08;;;;;;;14.05;10.98;;;;;;;15.81;64.35;99072.63;5091614;28;20032;-50
2022/02/17 08:45:36;;;;;;;19.42;14.30;;;;;;;15.97;64.40;99066.69;5094334;28;20020;-49
2022/02/17 08:48:02;;;;;;;16.13;11.30;;;;;;;16.04;64.09;99067.41;5094337;28;20081;-50
2022/02/17 08:50:28;;;;;;;11.40;10.18;;;;;;;15.88;64.90;99063.56;5094152;28;20020;-50
2022/02/17 08:52:53;;;;;;;10.65;9.55;;;;;;;17.06;62.64;99066.31;5094212;28;20064;-50
2022/02/17 08:55:19;;;;;;;23.27;17.92;;;;;;;17.70;58.79;99066.25;5094107;28;20019;-49
2022/02/17 08:57:47;;;;;;;21.05;16.77;;;;;;;16.70;58.19;99070.00;5093992;28;20059;-48
2022/02/17 09:00:16;;;;;;;17.13;12.80;;;;;;;16.20;61.35;99081.84;5094104;28;20024;-49
2022/02/17 09:02:42;;;;;;;15.45;11.80;;;;;;;16.26;62.08;99080.09;5094031;28;20425;-49
2022/02/17 09:05:08;;;;;;;30.60;15.52;;;;;;;16.68;61.86;99080.03;5093897;28;20027;-48
2022/02/17 09:07:34;;;;;;;47.50;31.27;;;;;;;17.62;61.11;99081.75;5093883;28;20024;-49
2022/02/17 09:10:00;;;;;;;18.75;11.38;;;;;;;18.35;58.97;99086.28;5092562;28;20031;-49
2022/02/17 09:12:33;;;;;;;22.10;10.88;;;;;;;18.61;57.75;99078.69;5093731;28;20107;-49
2022/02/17 09:15:00;;;;;;;17.83;9.18;;;;;;;18.65;57.36;99079.84;5092475;28;20485;-50
2022/02/17 09:17:25;;;;;;;16.60;9.15;;;;;;;18.57;57.49;99090.84;5092334;28;20036;-50
2022/02/17 09:19:51;;;;;;;13.82;8.25;;;;;;;18.56;57.35;99087.38;5093579;28;20498;-49
2022/02/17 09:22:17;;;;;;;10.98;8.18;;;;;;;18.72;56.15;99088.44;5093623;28;20027;-49
2022/02/17 09:24:42;;;;;;;10.13;9.00;;;;;;;18.30;57.06;99083.53;5093513;28;20107;-49
2022/02/17 09:27:08;;;;;;;8.98;8.07;;;;;;;18.20;58.01;99082.56;5093499;28;20490;-49
2022/02/17 09:29:35;;;;;;;16.30;14.15;;;;;;;19.69;55.21;99083.56;5093511;28;20069;-50
2022/02/17 09:32:00;;;;;;;17.95;11.52;;;;;;;19.70;54.12;99079.84;5093452;28;20035;-50
2022/02/17 09:34:26;;;;;;;11.15;8.40;;;;;;;19.42;54.88;99077.38;5093440;28;20012;-50
2022/02/17 09:36:52;;;;;;;12.60;9.18;;;;;;;19.74;53.46;99075.66;5091836;28;20047;-49
2022/02/17 09:39:21;;;;;;;10.73;9.52;;;;;;;19.67;53.59;99075.00;5091854;28;20119;-51
2022/02/17 09:41:47;;;;;;;67.72;48.67;;;;;;;19.42;54.85;99074.72;5093154;28;20023;-50
2022/02/17 09:44:13;;;;;;;54.83;38.97;;;;;;;20.07;54.15;99073.84;5093159;28;20074;-50
2022/02/17 09:46:44;;;;;;;28.38;19.60;;;;;;;21.29;51.23;99073.06;5091794;28;20513;-50
2022/02/17 09:49:18;;;;;;;15.45;11.88;;;;;;;21.34;50.43;99067.72;5091795;28;20035;-49
2022/02/17 09:51:46;;;;;;;26.02;12.32;;;;;;;21.11;51.15;99071.66;5093005;28;20028;-51
2022/02/17 09:54:12;;;;;;;17.55;10.02;;;;;;;20.81;51.92;99080.28;5091245;28;20494;-51
2022/02/17 09:56:39;;;;;;;34.20;11.82;;;;;;;20.49;52.48;99085.66;5092894;28;20017;-50
2022/02/17 09:59:05;;;;;;;30.70;10.52;;;;;;;20.30;52.96;99088.72;5091505;28;20497;-50
2022/02/17 10:01:32;;;;;;;26.98;10.70;;;;;;;20.24;52.98;99084.41;5092831;28;20093;-50
2022/02/17 10:04:14;;;;;;;22.42;10.40;;;;;;;20.05;52.86;99086.63;5092820;28;20016;-50
2022/02/17 10:06:49;;;;;;;19.33;9.00;;;;;;;19.83;53.72;99084.00;5092761;28;20024;-50
2022/02/17 10:09:16;;;;;;;15.57;8.40;;;;;;;19.82;53.28;99093.06;5092710;28;20051;-50
2022/02/17 10:11:44;;;;;;;13.10;7.03;;;;;;;19.78;53.54;99096.44;5091345;28;20056;-50
2022/02/17 10:14:15;;;;;;;13.98;6.80;;;;;;;19.85;53.45;99102.41;5092643;28;20099;-51
2022/02/17 10:16:58;;;;;;;11.52;6.72;;;;;;;20.30;53.86;99095.88;5092611;28;20031;-51
2022/02/17 10:19:30;;;;;;;14.18;7.70;;;;;;;21.30;51.10;99096.00;5092505;28;20020;-51
2022/02/17 10:22:13;;;;;;;17.45;7.88;;;;;;;21.31;51.05;99086.94;5092704;28;20040;-51
2022/02/17 10:24:48;;;;;;;17.90;8.27;;;;;;;21.37;50.83;99087.78;5092440;28;20021;-51
2022/02/17 10:27:17;;;;;;;11.45;7.55;;;;;;;21.47;50.21;99084.34;5092380;28;20056;-50
2022/02/17 10:30:13;;;;;;;12.40;8.07;;;;;;;21.21;50.33;99091.44;5092329;28;20532;-50
2022/02/17 10:33:03;;;;;;;22.65;7.18;;;;;;;21.25;51.02;99087.16;5079553;28;20039;-49
2022/02/17 10:35:29;;;;;;;15.80;6.60;;;;;;;21.52;50.35;99098.53;5092273;28;20020;-51
2022/02/17 10:37:58;;;;;;;16.52;6.93;;;;;;;21.19;50.53;99090.88;5091944;28;20078;-51
2022/02/17 10:40:32;;;;;;;8.00;5.95;;;;;;;20.94;51.27;99103.03;5090869;28;20052;-49
2022/02/17 10:43:02;;;;;;;10.90;6.10;;;;;;;20.74;51.62;99109.03;5092171;28;20030;-49
2022/02/17 10:45:28;;;;;;;9.32;6.18;;;;;;;20.80;51.80;99116.03;5090770;28;20039;-51
2022/02/17 10:48:28;;;;;;;20.88;6.10;;;;;;;21.55;50.68;99097.22;5092104;28;20091;-49
2022/02/17 10:51:06;;;;;;;12.68;6.80;;;;;;;21.82;49.91;99096.22;5092087;28;20024;-50
2022/02/17 10:53:35;;;;;;;12.18;7.05;;;;;;;21.95;49.23;99109.06;5091994;28;20028;-50
2022/02/17 10:56:04;;;;;;;13.63;8.68;;;;;;;22.45;47.88;99104.84;5091957;28;20027;-49
2022/02/17 10:58:36;;;;;;;12.57;6.95;;;;;;;22.85;47.68;99105.09;5091795;28;20428;-49
2022/02/17 11:01:05;;;;;;;7.03;5.20;;;;;;;23.14;46.75;99094.63;5092000;28;20042;-50
2022/02/17 11:03:32;;;;;;;9.30;4.78;;;;;;;23.15;45.78;99101.56;5090571;28;20094;-50
2022/02/17 11:06:03;;;;;;;9.15;5.80;;;;;;;23.79;45.39;99104.53;5091065;28;20035;-49
2022/02/17 11:08:29;;;;;;;16.73;4.65;;;;;;;24.42;44.12;99093.88;5092117;28;20023;-50
2022/02/17 11:10:56;;;;;;;8.15;4.40;;;;;;;24.43;43.31;99081.28;5090662;28;20486;-49
2022/02/17 11:13:25;;;;;;;10.40;3.83;;;;;;;25.05;42.73;99066.19;5091839;28;20028;-49
2022/02/17 11:15:53;;;;;;;6.53;3.58;;;;;;;26.77;39.78;99080.38;5091823;28;20024;-50
2022/02/17 11:18:20;;;;;;;7.80;4.15;;;;;;;28.32;37.66;99074.09;5091564;28;20039;-51
2022/02/17 11:20:51;;;;;;;9.38;4.20;;;;;;;29.30;35.28;99064.22;5090417;28;20044;-50
2022/02/17 11:23:21;;;;;;;5.55;3.55;;;;;;;29.46;34.65;99067.25;5090407;28;20028;-50
2022/02/17 11:25:48;;;;;;;5.95;4.00;;;;;;;30.06;33.92;99062.97;5090386;28;20400;-51